createdAt,value
2018-01-08T00:02:28.526Z,25.73
2018-01-08T00:04:56.323Z,26.53
2018-01-08T00:07:24.124Z,27.87
2018-01-08T00:09:51.902Z,27.67
2018-01-08T00:12:19.682Z,27.10
2018-01-08T00:14:47.482Z,29.57
2018-01-08T00:17:15.479Z,31.00
2018-01-08T00:19:43.308Z,32.03
2018-01-08T00:22:11.863Z,32.10
2018-01-08T00:24:39.741Z,30.03
2018-01-08T00:27:07.578Z,35.27
2018-01-08T00:29:35.363Z,32.30
2018-01-08T00:32:03.349Z,31.40
2018-01-08T00:34:31.146Z,29.70
2018-01-08T00:36:58.946Z,26.67
2018-01-08T00:39:26.784Z,26.70
2018-01-08T00:41:54.585Z,24.90
2018-01-08T00:44:22.421Z,25.80
2018-01-08T00:46:50.264Z,25.33
2018-01-08T00:49:18.066Z,26.23
2018-01-08T00:51:46.560Z,26.50
2018-01-08T00:54:14.622Z,26.40
2018-01-08T00:56:42.463Z,26.50
2018-01-08T00:59:10.323Z,26.67
2018-01-08T01:01:38.144Z,25.23
2018-01-08T01:04:06.738Z,26.63
2018-01-08T01:06:34.461Z,26.43
2018-01-08T01:09:02.299Z,25.77
2018-01-08T01:11:30.119Z,27.43
2018-01-08T01:13:57.838Z,26.77
2018-01-08T01:16:25.699Z,25.23
2018-01-08T01:18:54.146Z,25.77
2018-01-08T01:21:21.942Z,27.23
2018-01-08T01:23:49.828Z,25.17
2018-01-08T01:26:17.599Z,26.03
2018-01-08T01:28:46.149Z,26.47
2018-01-08T01:31:14.745Z,25.13
2018-01-08T01:33:42.626Z,25.17
2018-01-08T01:36:10.399Z,24.83
2018-01-08T01:38:38.280Z,24.53
2018-01-08T01:41:06.120Z,21.93
2018-01-08T01:43:33.881Z,23.57
2018-01-08T01:48:33.599Z,25.40
2018-01-08T01:51:01.440Z,23.07
2018-01-08T01:53:29.240Z,21.53
2018-01-08T01:55:57.719Z,21.53
2018-01-08T01:58:25.545Z,21.50
2018-01-08T02:00:53.279Z,22.07
2018-01-08T02:03:21.061Z,23.13
2018-01-08T02:05:48.822Z,22.33
2018-01-08T02:08:16.562Z,22.93
2018-01-08T02:10:44.299Z,21.73
2018-01-08T02:13:12.032Z,23.00
2018-01-08T02:15:39.853Z,21.00
2018-01-08T02:18:07.579Z,22.27
2018-01-08T02:20:35.378Z,20.73
2018-01-08T02:23:03.890Z,20.87
2018-01-08T02:25:31.679Z,22.77
2018-01-08T02:27:59.480Z,22.93
2018-01-08T02:30:27.282Z,22.70
2018-01-08T02:32:55.080Z,23.63
2018-01-08T02:35:22.960Z,25.83
2018-01-08T02:37:50.741Z,25.70
2018-01-08T02:40:18.500Z,26.40
2018-01-08T02:42:46.362Z,24.93
2018-01-08T02:45:14.146Z,25.37
2018-01-08T02:47:41.860Z,26.73
2018-01-08T02:50:09.700Z,20.97
2018-01-08T02:52:37.447Z,20.90
2018-01-08T02:55:06.071Z,24.27
2018-01-08T02:57:33.900Z,20.70
2018-01-08T03:00:01.620Z,19.30
2018-01-08T03:02:30.658Z,21.50
2018-01-08T03:04:58.510Z,18.70
2018-01-08T03:07:26.266Z,19.97
2018-01-08T03:09:54.022Z,19.63
2018-01-08T03:12:21.932Z,19.73
2018-01-08T03:14:49.662Z,19.43
2018-01-08T03:17:17.463Z,20.67
2018-01-08T03:19:45.305Z,25.27
2018-01-08T03:22:13.185Z,21.73
2018-01-08T03:24:40.992Z,19.50
2018-01-08T03:27:08.870Z,22.33
2018-01-08T03:29:36.663Z,20.83
2018-01-08T03:32:05.182Z,21.80
2018-01-08T03:34:34.028Z,19.33
2018-01-08T03:37:01.859Z,21.30
2018-01-08T03:39:29.621Z,19.50
2018-01-08T03:41:57.505Z,22.57
2018-01-08T03:44:25.324Z,23.90
2018-01-08T03:46:53.144Z,19.83
2018-01-08T03:49:22.023Z,22.43
2018-01-08T03:51:50.559Z,21.37
2018-01-08T03:54:19.042Z,21.57
2018-01-08T03:56:46.864Z,20.13
2018-01-08T03:59:14.620Z,20.40
2018-01-08T04:01:42.381Z,20.03
2018-01-08T04:04:10.200Z,20.67
2018-01-08T04:06:38.019Z,24.40
2018-01-08T04:09:05.780Z,20.10
2018-01-08T04:11:33.579Z,21.37
2018-01-08T04:14:01.340Z,22.10
2018-01-08T04:16:29.140Z,20.50
2018-01-08T04:18:56.980Z,26.80
2018-01-08T04:21:24.759Z,30.43
2018-01-08T04:23:52.560Z,21.67
2018-01-08T04:26:20.422Z,20.43
2018-01-08T04:28:48.943Z,19.20
2018-01-08T04:31:16.679Z,18.87
2018-01-08T04:33:45.420Z,19.67
2018-01-08T04:36:13.239Z,19.53
2018-01-08T04:38:41.218Z,21.77
2018-01-08T04:41:09.879Z,21.43
2018-01-08T04:43:37.679Z,22.17
2018-01-08T04:46:05.639Z,21.90
2018-01-08T04:48:33.738Z,25.30
2018-01-08T04:51:01.519Z,26.77
2018-01-08T04:53:29.438Z,24.13
2018-01-08T04:55:57.279Z,28.13
2018-01-08T04:58:25.299Z,32.13
2018-01-08T05:00:53.209Z,29.73
2018-01-08T05:03:21.222Z,30.57
2018-01-08T05:05:49.061Z,20.67
2018-01-08T05:08:16.902Z,22.60
2018-01-08T05:10:45.241Z,21.93
2018-01-08T05:13:13.022Z,20.20
2018-01-08T05:15:42.040Z,20.40
2018-01-08T05:18:09.959Z,23.17
2018-01-08T05:20:37.759Z,25.97
2018-01-08T05:23:05.619Z,25.37
2018-01-08T05:25:33.458Z,22.43
2018-01-08T05:28:01.481Z,25.20
2018-01-08T05:30:29.581Z,23.77
2018-01-08T05:32:57.504Z,24.07
2018-01-08T05:35:25.458Z,25.37
2018-01-08T05:37:53.341Z,24.77
2018-01-08T05:40:21.260Z,24.97
2018-01-08T05:42:49.302Z,24.00
2018-01-08T05:45:17.807Z,24.67
2018-01-08T05:47:45.979Z,24.87
2018-01-08T05:50:13.859Z,23.87
2018-01-08T05:52:41.698Z,24.53
2018-01-08T05:55:09.698Z,23.93
2018-01-08T05:57:37.527Z,23.93
2018-01-08T06:00:05.260Z,23.90
2018-01-08T06:02:33.068Z,24.20
2018-01-08T06:05:01.078Z,26.03
2018-01-08T06:07:28.968Z,28.23
2018-01-08T06:09:56.907Z,22.60
2018-01-08T06:12:24.828Z,23.50
2018-01-08T06:14:52.708Z,24.13
2018-01-08T06:17:21.128Z,20.30
2018-01-08T06:19:49.087Z,22.17
2018-01-08T06:22:17.989Z,21.00
2018-01-08T06:24:45.928Z,22.43
2018-01-08T06:27:13.708Z,25.60
2018-01-08T06:29:42.447Z,24.47
2018-01-08T06:32:10.768Z,25.50
2018-01-08T06:34:38.668Z,23.50
2018-01-08T06:37:07.307Z,22.20
2018-01-08T06:39:35.248Z,21.77
2018-01-08T06:42:03.107Z,20.90
2018-01-08T06:44:31.070Z,21.57
2018-01-08T06:47:01.022Z,20.63
2018-01-08T06:49:29.619Z,20.10
2018-01-08T06:51:57.866Z,22.60
2018-01-08T06:54:25.781Z,23.30
2018-01-08T06:56:53.521Z,22.63
2018-01-08T06:59:21.380Z,27.03
2018-01-08T07:01:49.604Z,30.10
2018-01-08T07:04:17.344Z,29.37
2018-01-08T07:06:45.802Z,28.87
2018-01-08T07:09:13.861Z,29.40
2018-01-08T07:11:41.800Z,26.30
2018-01-08T07:14:09.620Z,23.93
2018-01-08T07:16:37.360Z,22.87
2018-01-08T07:19:05.306Z,22.67
2018-01-08T07:21:33.148Z,23.70
2018-01-08T07:24:01.066Z,23.40
2018-01-08T07:26:28.845Z,20.30
2018-01-08T07:28:56.618Z,19.47
2018-01-08T07:31:24.498Z,20.37
2018-01-08T07:33:52.399Z,23.30
2018-01-08T07:36:21.058Z,23.90
2018-01-08T07:38:49.258Z,23.60
2018-01-08T07:41:17.379Z,24.13
2018-01-08T07:43:45.458Z,21.07
2018-01-08T07:46:13.439Z,20.07
2018-01-08T07:48:41.420Z,18.57
2018-01-08T07:51:09.298Z,18.70
2018-01-08T07:53:37.238Z,20.27
2018-01-08T07:56:05.279Z,20.73
2018-01-08T07:58:33.040Z,20.23
2018-01-08T08:01:00.899Z,18.67
2018-01-08T08:03:28.738Z,18.37
2018-01-08T08:05:56.540Z,16.93
2018-01-08T08:08:24.478Z,16.27
2018-01-08T08:10:52.218Z,17.27
2018-01-08T08:13:19.978Z,15.17
2018-01-08T08:15:47.727Z,14.33
2018-01-08T08:18:15.486Z,15.10
2018-01-08T08:20:43.978Z,14.70
2018-01-08T08:23:11.964Z,14.43
2018-01-08T08:25:39.819Z,14.50
2018-01-08T08:28:10.958Z,15.10
2018-01-08T08:30:39.627Z,13.87
2018-01-08T08:33:07.507Z,14.70
2018-01-08T08:35:35.322Z,13.63
2018-01-08T08:38:03.162Z,14.17
2018-01-08T08:40:31.223Z,14.20
2018-01-08T08:42:59.045Z,14.80
2018-01-08T08:45:27.065Z,13.53
2018-01-08T08:47:54.863Z,13.07
2018-01-08T08:50:22.723Z,13.63
2018-01-08T08:52:50.923Z,12.90
2018-01-08T08:55:18.670Z,12.90
2018-01-08T08:57:46.385Z,13.70
2018-01-08T09:00:14.361Z,14.00
2018-01-08T09:02:42.406Z,14.57
2018-01-08T09:05:10.141Z,14.33
2018-01-08T09:07:38.021Z,12.97
2018-01-08T09:10:05.821Z,13.73
2018-01-08T09:12:33.763Z,14.23
2018-01-08T09:15:01.584Z,16.10
2018-01-08T09:17:29.429Z,17.00
2018-01-08T09:19:57.241Z,16.73
2018-01-08T09:22:25.141Z,16.40
2018-01-08T09:24:52.945Z,16.57
2018-01-08T09:27:20.882Z,16.97
2018-01-08T09:29:48.821Z,15.87
2018-01-08T09:32:18.401Z,17.47
2018-01-08T09:34:46.543Z,17.50
2018-01-08T09:37:14.562Z,17.00
2018-01-08T09:39:42.401Z,17.47
2018-01-08T09:42:10.301Z,15.93
2018-01-08T09:44:38.282Z,15.53
2018-01-08T09:47:06.049Z,15.50
2018-01-08T09:49:33.938Z,16.00
2018-01-08T09:52:01.901Z,15.57
2018-01-08T09:54:30.460Z,16.90
2018-01-08T09:56:58.769Z,17.00
2018-01-08T09:59:26.660Z,16.33
2018-01-08T10:01:55.929Z,16.47
2018-01-08T10:04:35.869Z,16.30
2018-01-08T10:07:16.230Z,15.40
2018-01-08T10:09:57.780Z,15.33
2018-01-08T10:12:37.413Z,15.80
2018-01-08T10:15:17.184Z,15.27
2018-01-08T10:17:56.864Z,14.57
2018-01-08T10:20:24.784Z,14.63
2018-01-08T10:22:52.664Z,14.17
2018-01-08T10:25:21.345Z,14.53
2018-01-08T10:27:49.513Z,17.10
2018-01-08T10:30:17.466Z,20.03
2018-01-08T10:32:45.286Z,20.07
2018-01-08T10:35:13.083Z,19.33
2018-01-08T10:37:40.924Z,19.40
2018-01-08T10:40:08.805Z,20.87
2018-01-08T10:42:42.264Z,19.47
2018-01-08T10:45:15.646Z,20.83
2018-01-08T10:47:49.184Z,20.70
2018-01-08T10:50:22.785Z,21.23
2018-01-08T10:52:53.164Z,19.30
2018-01-08T10:55:20.973Z,19.50
2018-01-08T10:57:48.920Z,19.67
2018-01-08T11:00:16.818Z,18.63
2018-01-08T11:02:50.318Z,20.43
2018-01-08T11:05:19.701Z,19.53
2018-01-08T11:07:47.762Z,16.13
2018-01-08T11:10:15.580Z,17.70
2018-01-08T11:12:43.538Z,19.73
2018-01-08T11:15:11.320Z,16.80
2018-01-08T11:17:39.259Z,17.20
2018-01-08T11:20:07.419Z,19.63
2018-01-08T11:22:35.258Z,19.07
2018-01-08T11:25:02.999Z,21.27
2018-01-08T11:27:31.586Z,21.00
2018-01-08T11:29:59.498Z,19.70
2018-01-08T11:32:27.408Z,19.23
2018-01-08T11:34:55.361Z,20.00
2018-01-08T11:37:23.399Z,20.30
2018-01-08T11:39:51.378Z,20.93
2018-01-08T11:42:19.366Z,16.50
2018-01-08T11:44:47.938Z,19.60
2018-01-08T11:47:15.821Z,20.30
2018-01-08T11:49:43.818Z,20.80
2018-01-08T11:52:11.798Z,21.57
2018-01-08T11:54:39.658Z,21.60
2018-01-08T11:57:07.539Z,21.70
2018-01-08T11:59:35.419Z,21.13
2018-01-08T12:02:03.362Z,19.93
2018-01-08T12:04:31.341Z,21.57
2018-01-08T12:06:59.521Z,22.00
2018-01-08T12:09:28.340Z,20.50
2018-01-08T12:11:56.222Z,22.10
2018-01-08T12:14:25.983Z,22.87
2018-01-08T12:16:53.904Z,23.27
2018-01-08T12:19:24.542Z,22.77
2018-01-08T12:21:52.440Z,21.73
2018-01-08T12:24:20.406Z,23.17
2018-01-08T12:26:48.327Z,20.70
2018-01-08T12:29:16.248Z,19.53
2018-01-08T12:31:44.127Z,20.27
2018-01-08T12:34:12.186Z,20.93
2018-01-08T12:36:40.101Z,19.93
2018-01-08T12:39:08.040Z,20.27
2018-01-08T12:41:36.059Z,19.93
2018-01-08T12:44:03.978Z,19.37
2018-01-08T12:46:31.839Z,20.50
2018-01-08T12:48:59.838Z,20.30
2018-01-08T12:51:27.760Z,20.87
2018-01-08T12:53:55.558Z,19.30
2018-01-08T12:56:23.698Z,19.70
2018-01-08T12:58:51.678Z,20.77
2018-01-08T13:01:19.680Z,21.43
2018-01-08T13:03:48.099Z,20.37
2018-01-08T13:06:16.030Z,20.93
2018-01-08T13:08:43.981Z,20.90
2018-01-08T13:11:11.939Z,20.77
2018-01-08T13:13:39.782Z,20.70
2018-01-08T13:16:07.990Z,21.23
2018-01-08T13:18:35.910Z,22.83
2018-01-08T13:21:03.949Z,22.33
2018-01-08T13:23:31.910Z,20.53
2018-01-08T13:25:59.809Z,21.07
2018-01-08T13:28:27.729Z,22.63
2018-01-08T13:30:55.530Z,20.93
2018-01-08T13:33:23.590Z,21.70
2018-01-08T13:35:51.509Z,21.07
2018-01-08T13:38:19.391Z,22.30
2018-01-08T13:40:47.453Z,21.77
2018-01-08T13:43:15.295Z,20.37
2018-01-08T13:45:43.210Z,22.33
2018-01-08T13:48:11.170Z,22.20
2018-01-08T13:50:39.140Z,22.70
2018-01-08T13:53:07.340Z,20.67
2018-01-08T13:55:35.419Z,22.87
2018-01-08T13:58:03.460Z,21.27
2018-01-08T14:00:33.305Z,22.60
2018-01-08T14:03:01.282Z,21.63
2018-01-08T14:05:29.385Z,21.33
2018-01-08T14:07:57.284Z,22.03
2018-01-08T14:10:25.105Z,22.47
2018-01-08T14:12:53.124Z,21.17
2018-01-08T14:15:21.025Z,21.57
2018-01-08T14:17:49.427Z,21.50
2018-01-08T14:20:18.081Z,22.17
2018-01-08T14:22:47.787Z,23.33
2018-01-08T14:25:15.761Z,21.23
2018-01-08T14:27:43.662Z,20.63
2018-01-08T14:30:11.627Z,22.10
2018-01-08T14:32:41.327Z,21.20
2018-01-08T14:35:09.979Z,21.43
2018-01-08T14:37:37.759Z,20.40
2018-01-08T14:40:05.679Z,21.40
2018-01-08T14:42:33.540Z,21.07
2018-01-08T14:45:01.450Z,21.97
2018-01-08T14:47:30.018Z,21.40
2018-01-08T14:49:57.824Z,20.37
2018-01-08T14:52:25.659Z,21.30
2018-01-08T14:54:53.580Z,21.63
2018-01-08T14:57:21.549Z,21.80
2018-01-08T14:59:49.581Z,22.27
2018-01-08T15:02:17.604Z,21.17
2018-01-08T15:04:45.410Z,20.30
2018-01-08T15:07:13.386Z,19.87
2018-01-08T15:09:41.290Z,22.40
2018-01-08T15:12:09.105Z,20.53
2018-01-08T15:14:37.144Z,21.30
2018-01-08T15:17:05.104Z,22.33
2018-01-08T15:19:32.944Z,21.53
2018-01-08T15:22:00.724Z,20.30
2018-01-08T15:24:28.644Z,19.77
2018-01-08T15:26:59.269Z,24.70
2018-01-08T15:29:27.126Z,24.80
2018-01-08T15:31:54.940Z,18.43
2018-01-08T15:34:22.780Z,17.67
2018-01-08T15:36:50.632Z,20.03
2018-01-08T15:39:18.780Z,23.37
2018-01-08T15:41:46.483Z,22.53
2018-01-08T15:44:14.403Z,22.43
2018-01-08T15:46:42.382Z,27.13
2018-01-08T15:49:10.981Z,26.10
2018-01-08T15:51:38.864Z,25.87
2018-01-08T15:54:06.782Z,23.97
2018-01-08T15:56:34.757Z,26.70
2018-01-08T15:59:02.561Z,24.47
2018-01-08T16:01:30.507Z,25.13
2018-01-08T16:03:58.265Z,24.43
2018-01-08T16:06:26.362Z,24.67
2018-01-08T16:08:54.188Z,25.30
2018-01-08T16:11:22.020Z,27.10
2018-01-08T16:13:51.632Z,28.20
2018-01-08T16:16:19.538Z,26.67
2018-01-08T16:18:48.854Z,28.33
2018-01-08T16:21:16.680Z,30.07
2018-01-08T16:23:45.299Z,29.87
2018-01-08T16:26:13.539Z,29.17
2018-01-08T16:28:41.460Z,29.27
2018-01-08T16:31:09.362Z,31.53
2018-01-08T16:33:37.301Z,31.27
2018-01-08T16:36:05.121Z,32.43
2018-01-08T16:38:33.039Z,33.73
2018-01-08T16:41:01.022Z,33.13
2018-01-08T16:43:28.810Z,33.00
2018-01-08T16:45:56.720Z,35.40
2018-01-08T16:48:24.579Z,34.40
2018-01-08T16:50:52.601Z,35.67
2018-01-08T16:53:20.479Z,38.23
2018-01-08T16:55:48.440Z,36.87
2018-01-08T16:58:16.300Z,33.37
2018-01-08T17:00:44.363Z,30.57
2018-01-08T17:03:12.231Z,32.60
2018-01-08T17:05:40.187Z,33.27
2018-01-08T17:08:08.386Z,35.27
2018-01-08T17:10:36.107Z,33.90
2018-01-08T17:13:04.066Z,29.07
2018-01-08T17:15:32.026Z,30.63
2018-01-08T17:18:00.007Z,30.93
2018-01-08T17:20:28.166Z,31.97
2018-01-08T17:22:56.128Z,29.97
2018-01-08T17:25:24.227Z,29.63
2018-01-08T17:27:52.105Z,28.70
2018-01-08T17:30:20.007Z,28.10
2018-01-08T17:32:48.646Z,34.40
2018-01-08T17:35:16.527Z,38.47
2018-01-08T17:37:44.286Z,42.97
2018-01-08T17:40:12.486Z,38.67
2018-01-08T17:42:40.433Z,34.00
2018-01-08T17:45:08.586Z,36.73
2018-01-08T17:47:36.406Z,48.57
2018-01-08T17:50:04.186Z,43.90
2018-01-08T17:52:32.384Z,44.37
2018-01-08T17:55:00.204Z,41.30
2018-01-08T17:57:28.004Z,39.53
2018-01-08T17:59:57.891Z,35.60
2018-01-08T18:02:25.759Z,40.03
2018-01-08T18:04:54.380Z,36.07
2018-01-08T18:07:22.405Z,39.93
2018-01-08T18:09:50.239Z,37.00
2018-01-08T18:12:18.891Z,39.70
2018-01-08T18:14:46.799Z,36.40
2018-01-08T18:17:15.079Z,41.80
2018-01-08T18:19:43.849Z,43.40
2018-01-08T18:22:14.095Z,40.73
2018-01-08T18:24:42.144Z,44.13
2018-01-08T18:27:10.068Z,38.03
2018-01-08T18:29:38.385Z,37.73
2018-01-08T18:32:07.906Z,36.20
2018-01-08T18:34:36.433Z,35.60
2018-01-08T18:37:05.010Z,38.40
2018-01-08T18:39:32.786Z,39.17
2018-01-08T18:42:00.739Z,40.40
2018-01-08T18:44:29.380Z,42.23
2018-01-08T18:46:57.328Z,39.23
2018-01-08T18:49:25.315Z,38.53
2018-01-08T18:51:53.221Z,37.83
2018-01-08T18:56:53.399Z,39.77
2018-01-08T19:01:53.744Z,35.90
2018-01-08T19:04:21.724Z,34.40
2018-01-08T19:06:49.665Z,39.00
2018-01-08T19:09:17.925Z,41.10
2018-01-08T19:11:46.374Z,41.77
2018-01-08T19:14:14.202Z,47.10
2018-01-08T19:16:42.303Z,44.93
2018-01-08T19:19:10.206Z,43.97
2018-01-08T19:24:10.145Z,42.07
2018-01-08T19:26:38.640Z,42.73
2018-01-08T19:29:06.465Z,43.23
2018-01-08T19:31:34.830Z,45.20
2018-01-08T19:34:05.996Z,61.50
2018-01-08T19:36:34.001Z,65.07
2018-01-08T19:39:02.059Z,46.17
2018-01-08T19:41:30.136Z,51.43
2018-01-08T19:43:59.452Z,47.20
2018-01-08T19:46:29.013Z,48.73
2018-01-08T19:49:06.308Z,59.53
2018-01-08T19:51:34.715Z,53.60
2018-01-08T19:54:03.496Z,51.37
2018-01-08T19:56:32.702Z,48.60
2018-01-08T19:59:00.679Z,49.33
2018-01-08T20:01:30.306Z,47.77
2018-01-08T20:04:00.361Z,48.13
2018-01-08T20:06:31.020Z,47.23
2018-01-08T20:08:59.290Z,48.80
2018-01-08T20:11:28.064Z,44.53
2018-01-08T20:13:56.209Z,48.23
2018-01-08T20:16:25.134Z,46.03
2018-01-08T20:18:55.769Z,50.07
2018-01-08T20:21:26.167Z,45.90
2018-01-08T20:23:55.580Z,48.03
2018-01-08T20:26:26.141Z,45.77
2018-01-08T20:28:54.144Z,49.00
2018-01-08T20:31:22.028Z,51.17
2018-01-08T20:33:50.485Z,45.30
2018-01-08T20:36:19.528Z,44.87
2018-01-08T20:38:51.668Z,46.70
2018-01-08T20:41:23.506Z,45.23
2018-01-08T20:43:54.480Z,45.40
2018-01-08T20:46:25.705Z,42.50
2018-01-08T20:48:54.699Z,40.63
2018-01-08T20:51:23.266Z,37.07
2018-01-08T20:53:52.422Z,37.77
2018-01-08T20:56:29.483Z,37.00
2018-01-08T20:59:02.551Z,34.50
2018-01-08T21:01:33.084Z,34.10
2018-01-08T21:04:02.966Z,31.37
2018-01-08T21:06:34.342Z,30.47
2018-01-08T21:09:08.387Z,29.47
2018-01-08T21:11:40.961Z,28.30
2018-01-08T21:14:09.214Z,28.63
2018-01-08T21:16:43.435Z,30.13
2018-01-08T21:19:12.072Z,28.90
2018-01-08T21:21:40.503Z,28.93
2018-01-08T21:24:09.324Z,24.50
2018-01-08T21:26:37.263Z,26.40
2018-01-08T21:29:05.907Z,28.33
2018-01-08T21:31:33.820Z,27.63
2018-01-08T21:34:01.902Z,21.53
2018-01-08T21:36:30.674Z,25.37
2018-01-08T21:39:00.046Z,26.73
2018-01-08T21:41:28.281Z,26.07
2018-01-08T21:43:57.050Z,26.23
2018-01-08T21:46:24.980Z,27.53
2018-01-08T21:48:52.787Z,28.30
2018-01-08T21:51:20.559Z,29.93
2018-01-08T21:53:48.371Z,26.07
2018-01-08T21:56:16.101Z,27.13
2018-01-08T21:58:43.897Z,28.43
2018-01-08T22:01:11.681Z,27.67
2018-01-08T22:03:40.179Z,30.10
2018-01-08T22:06:07.921Z,28.73
2018-01-08T22:08:35.629Z,29.33
2018-01-08T22:11:03.704Z,31.37
2018-01-08T22:13:32.185Z,29.37
2018-01-08T22:15:59.927Z,25.57
2018-01-08T22:18:28.356Z,24.97
2018-01-08T22:20:57.256Z,25.93
2018-01-08T22:23:25.087Z,27.23
2018-01-08T22:25:52.828Z,26.57
2018-01-08T22:28:20.544Z,26.40
2018-01-08T22:30:48.298Z,26.57
2018-01-08T22:33:16.044Z,27.03
2018-01-08T22:35:43.805Z,30.23
2018-01-08T22:38:11.540Z,29.90
2018-01-08T22:40:39.278Z,28.93
2018-01-08T22:43:07.019Z,29.40
2018-01-08T22:45:34.760Z,29.60
2018-01-08T22:48:02.463Z,33.37
2018-01-08T22:50:30.163Z,30.33
2018-01-08T22:52:57.939Z,30.47
2018-01-08T22:55:25.671Z,24.83
2018-01-08T22:57:53.444Z,32.60
2018-01-08T23:00:26.452Z,32.47
2018-01-08T23:02:54.223Z,29.80
2018-01-08T23:05:21.939Z,30.00
2018-01-08T23:07:49.659Z,30.33
2018-01-08T23:10:17.397Z,28.23
2018-01-08T23:12:45.141Z,28.77
2018-01-08T23:15:12.828Z,25.20
2018-01-08T23:17:40.508Z,24.73
2018-01-08T23:20:08.207Z,20.00
2018-01-08T23:22:35.906Z,18.47
2018-01-08T23:25:03.632Z,17.63
2018-01-08T23:27:31.306Z,15.37
2018-01-08T23:29:58.967Z,36.30
2018-01-08T23:32:26.646Z,17.90
2018-01-08T23:34:54.407Z,38.07
2018-01-08T23:37:22.107Z,29.03
2018-01-08T23:39:49.807Z,15.80
2018-01-08T23:42:17.474Z,20.40
2018-01-08T23:44:45.947Z,17.77
2018-01-08T23:49:45.485Z,19.40
2018-01-08T23:52:13.207Z,28.57
2018-01-08T23:54:40.926Z,35.00
2018-01-08T23:57:08.667Z,37.53
2018-01-08T23:59:36.406Z,39.13
